Etusivu
METAR-TAF:

METAR-TAF

Lentoasemat :

Kuwaitin kansainvälinen lentoasema

Kuwait, Kuwait

Leveyspiiri: 29-13N, Pituuspiiri: 047-59E, korkeus merenpinnasta: 55 m

Tämänhetkinen sää

Tämä raportti tehtiin 28 minuuttia sitten, kello 04.00 UTC
Tuuli 15 kn pohjoisen/luoteesta
Lämpötila 34°C
Kosteus 26%
Ilmanpaine 1002 hPa
Näkyvyys 10 km tai enemmän
ei pilviä alle 1500 m:ssä eikä cumulonimbus-pilviä

METAR: OKBK 190400Z 34015KT CAVOK 34/12 Q1002 NOSIG

Aika: 07:28 (04:28 UTC)

Sääennuste

Tämä raportti tehtiin 5 tuntia ja 43 minuuttia sitten, kello 22.45 UTC
Ennuste voimassa 19. päivästä klo 00 UTC - 20. päivään klo 06 UTC
Tuuli 15 kn pohjoisesta puuskistuen 25 kn:hen
Näkyvyys: 7000 m
selkeää
Ajoittain
19. päivästä klo 06 UTC - 19. päivään klo 15 UTC
Näkyvyys: 3000 m
pölymyrsky

TAF: OKBK 182245Z 1900/2006 35015G25KT 7000 SKC TEMPO 1906/1915 3000 BLDU

Säähavainnot ja -ennusteet yli 4000 lentoasemalta (METAR- ja TAF-raportit).

Käytössä olevat sääasemat on merkitty karttaan keltaisilla ja punaisilla pisteillä.

Aseta hiiri pisteen päälle nähdäksesi sääaseman nimen.

Klikkaa sitten nähdäksesi säähavainnot ja -ennusteet.

Kartan vaihtaminen: klikkaa mustalla rastilla varustettuja vihreitä pisteitä, niin voit zoomata sisään; viivalla varustettua vihreää pistettä, niin voit zoomata ulos tai vihreitä nuolia, niin pääset viereisille kartoille.


METAR-TAF: